createdAt,value
2019-04-25T00:00:04.803Z,9.17
2019-04-25T00:01:04.852Z,9.19
2019-04-25T00:02:04.907Z,9.24
2019-04-25T00:03:04.963Z,9.20
2019-04-25T00:04:05.016Z,9.23
2019-04-25T00:05:05.072Z,9.20
2019-04-25T00:06:05.126Z,9.30
2019-04-25T00:07:05.183Z,9.22
2019-04-25T00:08:05.235Z,9.31
2019-04-25T00:09:05.290Z,9.26
2019-04-25T00:10:05.345Z,9.32
2019-04-25T00:11:05.400Z,9.30
2019-04-25T00:12:05.453Z,9.32
2019-04-25T00:13:05.508Z,9.30
2019-04-25T00:14:05.564Z,9.17
2019-04-25T00:15:05.619Z,9.24
2019-04-25T00:16:05.675Z,9.24
2019-04-25T00:17:05.727Z,9.30
2019-04-25T00:18:05.784Z,9.27
2019-04-25T00:19:05.838Z,9.22
2019-04-25T00:20:05.894Z,9.20
2019-04-25T00:21:05.950Z,9.08
2019-04-25T00:22:06.006Z,9.17
2019-04-25T00:23:06.057Z,9.00
2019-04-25T00:24:06.111Z,9.10
2019-04-25T00:25:15.201Z,9.12
2019-04-25T00:26:06.222Z,9.15
2019-04-25T00:27:06.277Z,9.20
2019-04-25T00:28:06.331Z,9.15
2019-04-25T00:29:06.385Z,9.26
2019-04-25T00:30:06.440Z,9.20
2019-04-25T00:31:06.496Z,9.26
2019-04-25T00:32:06.549Z,9.31
2019-04-25T00:33:06.605Z,9.31
2019-04-25T00:34:06.659Z,9.22
2019-04-25T00:35:06.715Z,9.27
2019-04-25T00:36:06.769Z,9.23
2019-04-25T00:37:06.823Z,9.27
2019-04-25T00:38:06.878Z,9.13
2019-04-25T00:39:06.935Z,9.12
2019-04-25T00:40:06.987Z,9.04
2019-04-25T00:41:07.044Z,9.04
2019-04-25T00:42:07.100Z,9.01
2019-04-25T00:43:07.153Z,9.13
2019-04-25T00:44:07.207Z,9.03
2019-04-25T00:45:07.262Z,8.97
2019-04-25T00:46:07.316Z,8.94
2019-04-25T00:47:07.371Z,8.94
2019-04-25T00:48:07.425Z,8.97
2019-04-25T00:49:07.481Z,8.91
2019-04-25T00:50:07.537Z,8.91
2019-04-25T00:51:07.590Z,8.94
2019-04-25T00:52:07.644Z,8.96
2019-04-25T00:53:07.699Z,8.91
2019-04-25T00:54:07.755Z,8.96
2019-04-25T00:55:07.809Z,8.97
2019-04-25T00:56:07.863Z,9.03
2019-04-25T00:57:07.919Z,9.08
2019-04-25T00:58:07.973Z,9.00
2019-04-25T00:59:08.028Z,8.97
2019-04-25T01:00:08.082Z,9.00
2019-04-25T01:01:08.157Z,8.98
2019-04-25T01:02:08.191Z,9.06
2019-04-25T01:03:08.246Z,8.97
2019-04-25T01:04:08.301Z,8.91
2019-04-25T01:05:08.355Z,8.96
2019-04-25T01:06:08.413Z,8.96
2019-04-25T01:07:08.467Z,9.00
2019-04-25T01:08:08.520Z,8.93
2019-04-25T01:09:08.574Z,8.75
2019-04-25T01:10:08.633Z,8.76
2019-04-25T01:11:08.685Z,8.73
2019-04-25T01:12:08.753Z,8.75
2019-04-25T01:13:08.792Z,8.76
2019-04-25T01:14:08.848Z,8.70
2019-04-25T01:15:08.903Z,8.73
2019-04-25T01:16:08.957Z,8.76
2019-04-25T01:17:09.012Z,8.78
2019-04-25T01:18:09.069Z,8.73
2019-04-25T01:19:09.122Z,8.78
2019-04-25T01:20:09.179Z,8.73
2019-04-25T01:21:09.230Z,8.75
2019-04-25T01:22:09.284Z,8.82
2019-04-25T01:23:09.340Z,8.76
2019-04-25T01:24:09.393Z,8.71
2019-04-25T01:25:09.447Z,8.76
2019-04-25T01:26:09.503Z,8.71
2019-04-25T01:27:09.557Z,8.73
2019-04-25T01:28:09.611Z,8.76
2019-04-25T01:29:09.671Z,8.80
2019-04-25T01:30:09.721Z,8.78
2019-04-25T01:31:09.800Z,8.79
2019-04-25T01:32:09.831Z,8.71
2019-04-25T01:33:09.897Z,8.71
2019-04-25T01:34:10.039Z,8.57
2019-04-25T01:35:09.993Z,8.50
2019-04-25T01:36:10.048Z,8.52
2019-04-25T01:37:10.103Z,8.49
2019-04-25T01:38:10.156Z,8.46
2019-04-25T01:39:10.213Z,8.47
2019-04-25T01:40:10.264Z,8.47
2019-04-25T01:41:10.319Z,8.47
2019-04-25T01:42:10.375Z,8.42
2019-04-25T01:43:10.429Z,8.39
2019-04-25T01:44:10.482Z,8.39
2019-04-25T01:45:10.538Z,8.37
2019-04-25T01:46:10.592Z,8.39
2019-04-25T01:47:10.648Z,8.42
2019-04-25T01:48:10.700Z,8.37
2019-04-25T01:49:10.755Z,8.37
2019-04-25T01:50:10.810Z,8.29
2019-04-25T01:51:10.864Z,8.31
2019-04-25T01:52:10.922Z,8.36
2019-04-25T01:53:10.973Z,8.32
2019-04-25T01:54:11.027Z,8.32
2019-04-25T01:55:11.080Z,8.29
2019-04-25T01:56:11.135Z,8.28
2019-04-25T01:57:11.190Z,8.29
2019-04-25T01:58:11.252Z,8.29
2019-04-25T01:59:11.298Z,8.31
2019-04-25T02:00:11.352Z,8.20
2019-04-25T02:01:11.406Z,8.22
2019-04-25T02:02:11.460Z,8.24
2019-04-25T02:03:11.515Z,8.13
2019-04-25T02:04:13.140Z,8.12
2019-04-25T02:05:11.623Z,8.10
2019-04-25T02:06:11.677Z,8.18
2019-04-25T02:07:13.379Z,8.20
2019-04-25T02:08:11.810Z,8.10
2019-04-25T02:09:13.537Z,8.21
2019-04-25T02:10:13.377Z,8.25
2019-04-25T02:11:11.948Z,8.22
2019-04-25T02:12:13.488Z,8.22
2019-04-25T02:13:12.054Z,8.22
2019-04-25T02:14:13.621Z,8.21
2019-04-25T02:15:13.780Z,8.18
2019-04-25T02:16:12.218Z,8.20
2019-04-25T02:17:14.038Z,8.27
2019-04-25T02:18:13.703Z,8.18
2019-04-25T02:19:12.384Z,8.07
2019-04-25T02:20:13.953Z,8.24
2019-04-25T02:21:13.744Z,8.24
2019-04-25T02:22:12.544Z,8.27
2019-04-25T02:23:14.096Z,8.24
2019-04-25T02:24:13.693Z,8.20
2019-04-25T02:25:13.274Z,8.13
2019-04-25T02:26:16.770Z,8.20
2019-04-25T02:27:13.411Z,8.20
2019-04-25T02:28:13.926Z,8.29
2019-04-25T02:29:13.624Z,8.24
2019-04-25T02:30:15.225Z,8.22
2019-04-25T02:31:15.326Z,8.24
2019-04-25T02:32:14.644Z,8.22
2019-04-25T02:33:14.198Z,8.24
2019-04-25T02:34:15.363Z,8.18
2019-04-25T02:35:14.747Z,8.17
2019-04-25T02:36:15.139Z,8.09
2019-04-25T02:37:14.542Z,8.09
2019-04-25T02:38:14.709Z,8.17
2019-04-25T02:39:14.861Z,8.09
2019-04-25T02:40:14.260Z,8.13
2019-04-25T02:41:14.823Z,8.14
2019-04-25T02:42:16.179Z,8.14
2019-04-25T02:43:14.331Z,8.10
2019-04-25T02:44:14.560Z,8.12
2019-04-25T02:45:16.249Z,8.06
2019-04-25T02:46:15.201Z,8.14
2019-04-25T02:47:14.832Z,8.03
2019-04-25T02:48:14.282Z,8.12
2019-04-25T02:49:28.791Z,8.14
2019-04-25T02:50:15.078Z,8.10
2019-04-25T02:51:14.608Z,8.07
2019-04-25T02:52:17.718Z,8.06
2019-04-25T02:53:14.296Z,8.02
2019-04-25T02:54:14.272Z,8.02
2019-04-25T02:55:28.075Z,8.02
2019-04-25T02:56:29.910Z,7.99
2019-04-25T02:57:14.727Z,7.94
2019-04-25T02:58:14.489Z,7.96
2019-04-25T02:59:15.114Z,8.02
2019-04-25T03:00:15.052Z,7.96
2019-04-25T03:01:21.649Z,7.95
2019-04-25T03:02:15.610Z,8.00
2019-04-25T03:03:14.951Z,7.92
2019-04-25T03:04:14.815Z,7.96
2019-04-25T03:05:14.878Z,7.85
2019-04-25T03:06:15.251Z,7.79
2019-04-25T03:07:17.457Z,7.82
2019-04-25T03:08:15.026Z,7.82
2019-04-25T03:09:15.695Z,7.85
2019-04-25T03:10:15.135Z,7.81
2019-04-25T03:11:15.403Z,7.88
2019-04-25T03:12:29.847Z,7.76
2019-04-25T03:13:15.296Z,7.79
2019-04-25T03:14:15.353Z,7.84
2019-04-25T03:15:15.403Z,7.81
2019-04-25T03:16:15.457Z,7.81
2019-04-25T03:17:15.511Z,7.85
2019-04-25T03:18:15.573Z,7.81
2019-04-25T03:19:15.619Z,7.85
2019-04-25T03:20:15.699Z,7.76
2019-04-25T03:21:17.500Z,7.70
2019-04-25T03:22:15.781Z,7.67
2019-04-25T03:23:15.834Z,7.69
2019-04-25T03:24:16.783Z,7.70
2019-04-25T03:25:17.537Z,7.73
2019-04-25T03:26:15.994Z,7.67
2019-04-25T03:27:16.049Z,7.71
2019-04-25T03:28:16.106Z,7.71
2019-04-25T03:29:16.179Z,7.69
2019-04-25T03:30:17.975Z,7.63
2019-04-25T03:31:22.745Z,7.69
2019-04-25T03:32:19.587Z,7.62
2019-04-25T03:33:19.784Z,7.66
2019-04-25T03:34:20.196Z,7.63
2019-04-25T03:35:16.480Z,7.63
2019-04-25T03:36:17.124Z,7.55
2019-04-25T03:37:16.586Z,7.57
2019-04-25T03:38:16.644Z,7.54
2019-04-25T03:39:16.713Z,7.54
2019-04-25T03:40:16.746Z,7.54
2019-04-25T03:41:16.802Z,7.54
2019-04-25T03:42:16.853Z,7.52
2019-04-25T03:43:16.908Z,7.32
2019-04-25T03:44:16.961Z,7.39
2019-04-25T03:45:17.015Z,7.45
2019-04-25T03:46:17.069Z,7.41
2019-04-25T03:47:17.123Z,7.44
2019-04-25T03:48:17.176Z,7.37
2019-04-25T03:49:17.230Z,7.29
2019-04-25T03:50:17.283Z,7.27
2019-04-25T03:51:17.337Z,7.15
2019-04-25T03:52:17.390Z,7.18
2019-04-25T03:53:17.444Z,7.21
2019-04-25T03:54:17.496Z,7.24
2019-04-25T03:55:17.552Z,7.21
2019-04-25T03:56:17.603Z,7.27
2019-04-25T03:57:17.656Z,7.18
2019-04-25T03:58:17.716Z,7.37
2019-04-25T03:59:17.765Z,7.36
2019-04-25T04:00:17.817Z,7.21
2019-04-25T04:01:17.871Z,7.19
2019-04-25T04:02:17.932Z,7.15
2019-04-25T04:03:17.979Z,7.23
2019-04-25T04:04:18.031Z,7.16
2019-04-25T04:05:18.086Z,7.23
2019-04-25T04:06:18.140Z,7.14
2019-04-25T04:07:18.193Z,7.14
2019-04-25T04:08:18.245Z,7.09
2019-04-25T04:09:18.301Z,7.07
2019-04-25T04:10:21.097Z,7.15
2019-04-25T04:11:18.405Z,7.05
2019-04-25T04:12:18.459Z,7.07
2019-04-25T04:13:18.512Z,7.04
2019-04-25T04:14:18.566Z,7.00
2019-04-25T04:15:18.619Z,7.04
2019-04-25T04:16:18.672Z,7.15
2019-04-25T04:17:18.725Z,7.08
2019-04-25T04:18:18.779Z,6.94
2019-04-25T04:19:18.833Z,6.94
2019-04-25T04:20:18.886Z,6.97
2019-04-25T04:21:18.940Z,6.96
2019-04-25T04:22:18.991Z,7.04
2019-04-25T04:23:19.056Z,7.08
2019-04-25T04:24:19.100Z,6.91
2019-04-25T04:25:19.152Z,6.96
2019-04-25T04:26:19.206Z,6.91
2019-04-25T04:27:19.259Z,6.90
2019-04-25T04:28:19.315Z,6.94
2019-04-25T04:29:19.364Z,7.01
2019-04-25T04:30:19.419Z,6.94
2019-04-25T04:31:19.471Z,6.87
2019-04-25T04:32:19.533Z,6.99
2019-04-25T04:33:29.449Z,6.94
2019-04-25T04:34:19.632Z,6.97
2019-04-25T04:35:19.684Z,6.96
2019-04-25T04:36:19.736Z,7.08
2019-04-25T04:37:19.790Z,7.09
2019-04-25T04:38:19.843Z,7.11
2019-04-25T04:39:19.898Z,7.14
2019-04-25T04:40:19.953Z,7.27
2019-04-25T04:41:20.002Z,7.15
2019-04-25T04:42:20.056Z,7.23
2019-04-25T04:43:20.110Z,7.08
2019-04-25T04:44:20.163Z,7.04
2019-04-25T04:45:20.215Z,7.26
2019-04-25T04:46:20.271Z,7.16
2019-04-25T04:47:20.324Z,7.24
2019-04-25T04:48:20.376Z,7.24
2019-04-25T04:49:20.430Z,7.08
2019-04-25T04:50:20.483Z,7.08
2019-04-25T04:51:20.536Z,7.05
2019-04-25T04:52:23.464Z,7.14
2019-04-25T04:53:20.645Z,7.19
2019-04-25T04:54:20.697Z,7.11
2019-04-25T04:55:20.749Z,7.00
2019-04-25T04:56:20.803Z,7.08
2019-04-25T04:57:29.071Z,7.07
2019-04-25T04:58:20.910Z,7.11
2019-04-25T04:59:20.962Z,7.14
2019-04-25T05:00:21.021Z,7.19
2019-04-25T05:01:21.069Z,7.07
2019-04-25T05:02:21.122Z,7.19
2019-04-25T05:03:21.176Z,7.15
2019-04-25T05:04:21.229Z,7.24
2019-04-25T05:05:21.281Z,7.21
2019-04-25T05:06:21.335Z,7.32
2019-04-25T05:07:21.611Z,7.24
2019-04-25T05:08:21.443Z,7.34
2019-04-25T05:09:22.358Z,7.36
2019-04-25T05:10:23.350Z,7.32
2019-04-25T05:11:23.583Z,7.39
2019-04-25T05:12:21.698Z,7.41
2019-04-25T05:13:22.076Z,7.44
2019-04-25T05:14:21.762Z,7.36
2019-04-25T05:15:23.009Z,7.34
2019-04-25T05:16:23.703Z,7.36
2019-04-25T05:17:21.923Z,7.33
2019-04-25T05:18:36.529Z,7.51
2019-04-25T05:19:22.425Z,7.51
2019-04-25T05:20:22.265Z,7.54
2019-04-25T05:21:22.584Z,7.62
2019-04-25T05:22:22.896Z,7.45
2019-04-25T05:23:23.433Z,7.34
2019-04-25T05:24:24.925Z,7.34
2019-04-25T05:25:24.314Z,7.57
2019-04-25T05:26:24.877Z,7.52
2019-04-25T05:27:37.173Z,7.48
2019-04-25T05:28:24.390Z,7.57
2019-04-25T05:29:24.148Z,7.55
2019-04-25T05:30:23.973Z,7.54
2019-04-25T05:31:24.015Z,7.54
2019-04-25T05:32:24.988Z,7.63
2019-04-25T05:33:24.263Z,7.79
2019-04-25T05:34:24.707Z,7.67
2019-04-25T05:35:24.280Z,7.58
2019-04-25T05:36:23.901Z,7.48
2019-04-25T05:37:24.099Z,7.62
2019-04-25T05:38:24.349Z,7.67
2019-04-25T05:39:24.059Z,7.69
2019-04-25T05:40:24.426Z,7.63
2019-04-25T05:41:24.416Z,7.74
2019-04-25T05:42:24.797Z,7.79
2019-04-25T05:43:24.504Z,7.86
2019-04-25T05:44:26.398Z,7.82
2019-04-25T05:45:23.858Z,7.82
2019-04-25T05:46:25.203Z,7.84
2019-04-25T05:47:26.085Z,7.82
2019-04-25T05:48:25.081Z,7.94
2019-04-25T05:49:24.910Z,8.13
2019-04-25T05:50:24.960Z,8.06
2019-04-25T05:51:24.815Z,8.12
2019-04-25T05:52:24.352Z,8.10
2019-04-25T05:53:24.234Z,8.12
2019-04-25T05:54:24.777Z,8.06
2019-04-25T05:55:25.168Z,8.21
2019-04-25T05:56:24.665Z,8.34
2019-04-25T05:57:24.993Z,8.29
2019-04-25T05:58:25.700Z,8.32
2019-04-25T05:59:25.522Z,8.42
2019-04-25T06:00:25.067Z,8.46
2019-04-25T06:01:24.968Z,8.42
2019-04-25T06:02:25.342Z,8.34
2019-04-25T06:03:25.412Z,8.40
2019-04-25T06:04:25.049Z,8.27
2019-04-25T06:05:26.408Z,8.39
2019-04-25T06:06:24.760Z,8.46
2019-04-25T06:07:25.868Z,8.50
2019-04-25T06:08:25.848Z,8.60
2019-04-25T06:09:25.057Z,8.65
2019-04-25T06:10:25.668Z,8.73
2019-04-25T06:11:25.176Z,8.88
2019-04-25T06:12:25.884Z,8.91
2019-04-25T06:13:26.437Z,8.75
2019-04-25T06:14:25.373Z,8.75
2019-04-25T06:15:26.022Z,8.82
2019-04-25T06:16:27.015Z,8.89
2019-04-25T06:17:25.955Z,8.94
2019-04-25T06:18:25.983Z,9.03
2019-04-25T06:19:26.400Z,9.03
2019-04-25T06:20:25.739Z,9.15
2019-04-25T06:21:25.662Z,9.19
2019-04-25T06:22:25.613Z,9.15
2019-04-25T06:23:25.628Z,9.24
2019-04-25T06:24:25.995Z,9.27
2019-04-25T06:25:32.208Z,9.41
2019-04-25T06:26:34.033Z,9.53
2019-04-25T06:27:26.908Z,9.63
2019-04-25T06:28:26.230Z,9.74
2019-04-25T06:29:25.969Z,9.77
2019-04-25T06:30:26.188Z,9.86
2019-04-25T06:31:26.853Z,9.91
2019-04-25T06:32:26.879Z,9.81
2019-04-25T06:33:27.003Z,9.83
2019-04-25T06:34:28.381Z,9.92
2019-04-25T06:35:27.280Z,9.98
2019-04-25T06:36:27.071Z,10.07
2019-04-25T06:37:27.008Z,10.20
2019-04-25T06:38:27.496Z,10.39
2019-04-25T06:39:26.407Z,10.34
2019-04-25T06:40:29.316Z,10.47
2019-04-25T06:41:27.090Z,10.55
2019-04-25T06:42:27.036Z,10.70
2019-04-25T06:43:26.784Z,10.70
2019-04-25T06:44:27.191Z,10.81
2019-04-25T06:45:26.737Z,10.86
2019-04-25T06:46:26.865Z,10.75
2019-04-25T06:47:26.836Z,10.83
2019-04-25T06:48:27.146Z,10.83
2019-04-25T06:49:27.826Z,10.73
2019-04-25T06:50:27.083Z,10.60
2019-04-25T06:51:28.035Z,10.72
2019-04-25T06:52:29.993Z,10.84
2019-04-25T06:53:27.177Z,10.91
2019-04-25T06:54:28.119Z,10.91
2019-04-25T06:55:28.386Z,11.12
2019-04-25T06:56:27.481Z,11.23
2019-04-25T06:57:29.023Z,11.45
2019-04-25T06:58:28.439Z,11.51
2019-04-25T06:59:28.780Z,11.44
2019-04-25T07:00:28.858Z,11.46
2019-04-25T07:01:27.929Z,11.57
2019-04-25T07:02:27.691Z,11.60
2019-04-25T07:03:27.751Z,11.66
2019-04-25T07:04:28.381Z,11.67
2019-04-25T07:05:33.911Z,11.69
2019-04-25T07:06:27.920Z,11.70
2019-04-25T07:07:28.912Z,11.81
2019-04-25T07:08:28.035Z,11.78
2019-04-25T07:09:29.539Z,11.69
2019-04-25T07:10:28.149Z,11.60
2019-04-25T07:11:28.313Z,11.66
2019-04-25T07:12:30.552Z,11.63
2019-04-25T07:13:28.445Z,11.64
2019-04-25T07:14:28.378Z,11.63
2019-04-25T07:15:28.436Z,11.74
2019-04-25T07:16:29.356Z,11.77
2019-04-25T07:17:28.549Z,11.85
2019-04-25T07:18:31.595Z,11.81
2019-04-25T07:19:28.669Z,12.00
2019-04-25T07:20:28.722Z,11.81
2019-04-25T07:21:28.781Z,11.90
2019-04-25T07:22:28.838Z,11.96
2019-04-25T07:23:29.711Z,11.93
2019-04-25T07:24:28.950Z,11.94
2019-04-25T07:25:29.008Z,11.88
2019-04-25T07:26:29.068Z,11.88
2019-04-25T07:27:29.124Z,11.88
2019-04-25T07:28:31.107Z,12.03
2019-04-25T07:29:29.240Z,12.22
2019-04-25T07:30:43.809Z,12.22
2019-04-25T07:31:29.367Z,12.33
2019-04-25T07:32:30.175Z,12.30
2019-04-25T07:33:29.612Z,12.37
2019-04-25T07:34:29.527Z,12.41
2019-04-25T07:35:29.586Z,12.31
2019-04-25T07:36:29.642Z,12.26
2019-04-25T07:37:29.833Z,12.22
2019-04-25T07:38:31.081Z,12.30
2019-04-25T07:39:29.816Z,12.31
2019-04-25T07:40:29.873Z,12.54
2019-04-25T07:41:29.945Z,12.70
2019-04-25T07:42:29.989Z,12.54
2019-04-25T07:43:30.048Z,12.62
2019-04-25T07:44:42.894Z,12.66
2019-04-25T07:45:30.854Z,12.63
2019-04-25T07:46:30.334Z,12.66
2019-04-25T07:47:31.290Z,12.79
2019-04-25T07:48:30.340Z,12.91
2019-04-25T07:49:30.529Z,13.14
2019-04-25T07:50:30.452Z,13.12
2019-04-25T07:51:30.511Z,13.28
2019-04-25T07:52:30.915Z,13.50
2019-04-25T07:53:31.542Z,13.69
2019-04-25T07:54:30.731Z,13.76
2019-04-25T07:55:31.071Z,13.68
2019-04-25T07:56:31.415Z,13.66
2019-04-25T07:57:31.243Z,13.69
2019-04-25T07:58:43.623Z,13.72
2019-04-25T07:59:31.046Z,13.90
2019-04-25T08:00:31.380Z,14.06
2019-04-25T08:01:31.133Z,14.31
2019-04-25T08:02:32.286Z,14.46
2019-04-25T08:03:32.095Z,14.61
2019-04-25T08:04:31.808Z,14.66
2019-04-25T08:05:31.460Z,14.74
2019-04-25T08:06:33.091Z,14.74
2019-04-25T08:07:31.651Z,14.67
2019-04-25T08:08:31.833Z,14.61
2019-04-25T08:09:31.679Z,14.63
2019-04-25T08:10:31.885Z,14.71
2019-04-25T08:11:31.998Z,14.64
2019-04-25T08:12:32.531Z,14.91
2019-04-25T08:13:32.468Z,14.85
2019-04-25T08:14:32.418Z,14.67
2019-04-25T08:15:33.516Z,14.86
2019-04-25T08:16:34.312Z,14.87
2019-04-25T08:17:34.130Z,15.09
2019-04-25T08:18:32.705Z,15.33
2019-04-25T08:19:33.503Z,15.38
2019-04-25T08:20:32.865Z,15.34
2019-04-25T08:21:34.072Z,15.38
2019-04-25T08:22:34.518Z,15.44
2019-04-25T08:23:36.692Z,15.51
2019-04-25T08:24:33.196Z,15.62
2019-04-25T08:25:33.446Z,15.60
2019-04-25T08:26:34.814Z,15.71
2019-04-25T08:27:34.157Z,15.80
2019-04-25T08:28:34.444Z,15.80
2019-04-25T08:29:34.732Z,15.98
2019-04-25T08:30:35.269Z,15.96
2019-04-25T08:31:34.802Z,16.13
2019-04-25T08:32:35.097Z,16.22
2019-04-25T08:33:34.583Z,16.26
2019-04-25T08:34:34.845Z,16.29
2019-04-25T08:35:34.224Z,16.34
2019-04-25T08:36:36.358Z,16.40
2019-04-25T08:37:34.437Z,16.42
2019-04-25T08:38:34.703Z,16.42
2019-04-25T08:39:34.092Z,16.40
2019-04-25T08:40:35.718Z,16.36
2019-04-25T08:41:34.826Z,16.13
2019-04-25T08:42:35.484Z,15.66
2019-04-25T08:43:36.343Z,15.53
2019-04-25T08:44:34.802Z,15.53
2019-04-25T08:45:35.733Z,15.59
2019-04-25T08:46:35.830Z,15.44
2019-04-25T08:47:35.124Z,15.51
2019-04-25T08:48:34.931Z,15.51
2019-04-25T08:49:34.892Z,15.56
2019-04-25T08:50:37.123Z,15.51
2019-04-25T08:51:34.927Z,15.51
2019-04-25T08:52:35.477Z,15.68
2019-04-25T08:53:35.338Z,15.92
2019-04-25T08:54:36.389Z,16.06
2019-04-25T08:55:34.956Z,16.23
2019-04-25T08:56:35.516Z,16.26
2019-04-25T08:57:35.216Z,16.37
2019-04-25T08:58:35.376Z,16.29
2019-04-25T08:59:40.733Z,16.04
2019-04-25T09:00:35.778Z,16.07
2019-04-25T09:01:37.939Z,15.84
2019-04-25T09:02:36.445Z,15.78
2019-04-25T09:03:35.800Z,15.66
2019-04-25T09:04:36.011Z,15.64
2019-04-25T09:05:36.480Z,15.84
2019-04-25T09:06:36.453Z,15.93
2019-04-25T09:07:36.957Z,15.73
2019-04-25T09:08:35.966Z,15.85
2019-04-25T09:09:36.637Z,15.84
2019-04-25T09:10:36.889Z,15.84
2019-04-25T09:11:37.994Z,15.91
2019-04-25T09:12:36.503Z,16.01
2019-04-25T09:13:35.927Z,16.13
2019-04-25T09:14:36.485Z,16.32
2019-04-25T09:15:36.649Z,16.40
2019-04-25T09:16:36.617Z,16.30
2019-04-25T09:17:36.831Z,16.37
2019-04-25T09:18:36.982Z,16.44
2019-04-25T09:19:36.976Z,16.47
2019-04-25T09:20:39.179Z,16.57
2019-04-25T09:21:36.553Z,16.67
2019-04-25T09:22:37.361Z,16.63
2019-04-25T09:23:36.531Z,16.73
2019-04-25T09:24:37.628Z,16.69
2019-04-25T09:25:36.809Z,16.67
2019-04-25T09:26:37.218Z,16.81
2019-04-25T09:27:39.263Z,16.87
2019-04-25T09:28:38.971Z,16.91
2019-04-25T09:29:37.109Z,17.03
2019-04-25T09:30:37.425Z,17.10
2019-04-25T09:31:38.797Z,17.17
2019-04-25T09:32:37.297Z,17.18
2019-04-25T09:33:37.228Z,17.49
2019-04-25T09:34:38.115Z,17.51
2019-04-25T09:35:37.650Z,17.55
2019-04-25T09:36:37.685Z,17.65
2019-04-25T09:37:37.484Z,17.63
2019-04-25T09:38:37.546Z,17.55
2019-04-25T09:39:37.611Z,17.66
2019-04-25T09:40:37.539Z,17.83
2019-04-25T09:41:37.872Z,17.94
2019-04-25T09:42:37.118Z,18.10
2019-04-25T09:43:37.954Z,18.11
2019-04-25T09:44:39.154Z,18.31
2019-04-25T09:45:37.804Z,18.47
2019-04-25T09:46:37.917Z,18.71
2019-04-25T09:47:38.000Z,18.78
2019-04-25T09:48:38.018Z,19.09
2019-04-25T09:49:39.093Z,19.30
2019-04-25T09:50:38.753Z,19.40
2019-04-25T09:51:38.218Z,19.52
2019-04-25T09:52:38.236Z,19.76
2019-04-25T09:53:43.216Z,19.90
2019-04-25T09:54:38.116Z,19.95
2019-04-25T09:55:37.904Z,19.64
2019-04-25T09:56:38.269Z,19.64
2019-04-25T09:57:38.919Z,19.70
2019-04-25T09:58:38.089Z,19.62
2019-04-25T09:59:38.153Z,19.78
2019-04-25T10:00:38.285Z,19.86
2019-04-25T10:01:38.277Z,19.83
2019-04-25T10:02:38.336Z,19.79
2019-04-25T10:03:38.682Z,19.94
2019-04-25T10:04:39.187Z,20.10
2019-04-25T10:05:38.533Z,20.17
2019-04-25T10:06:38.891Z,20.01
2019-04-25T10:07:38.647Z,20.02
2019-04-25T10:08:38.744Z,20.00
2019-04-25T10:09:38.769Z,20.17
2019-04-25T10:10:38.917Z,20.31
2019-04-25T10:11:39.958Z,20.31
2019-04-25T10:12:38.959Z,20.07
2019-04-25T10:13:40.028Z,20.07
2019-04-25T10:14:39.083Z,19.83
2019-04-25T10:15:39.145Z,19.94
2019-04-25T10:16:40.202Z,20.07
2019-04-25T10:17:39.320Z,20.25
2019-04-25T10:18:39.332Z,20.53
2019-04-25T10:19:39.396Z,20.48
2019-04-25T10:20:39.459Z,20.58
2019-04-25T10:21:39.616Z,20.79
2019-04-25T10:22:40.342Z,20.82
2019-04-25T10:23:39.901Z,21.00
2019-04-25T10:24:39.758Z,21.36
2019-04-25T10:25:39.772Z,21.59
2019-04-25T10:26:39.902Z,21.53
2019-04-25T10:27:40.703Z,20.85
2019-04-25T10:28:39.963Z,20.81
2019-04-25T10:29:46.884Z,20.93
2019-04-25T10:30:41.068Z,21.12
2019-04-25T10:31:40.723Z,21.21
2019-04-25T10:32:40.218Z,21.49
2019-04-25T10:33:40.282Z,21.86
2019-04-25T10:34:41.153Z,22.29
2019-04-25T10:35:48.063Z,22.30
2019-04-25T10:36:42.141Z,22.64
2019-04-25T10:37:41.040Z,22.84
2019-04-25T10:38:42.040Z,23.56
2019-04-25T10:39:41.080Z,23.82
2019-04-25T10:40:41.390Z,24.09
2019-04-25T10:41:41.511Z,24.19
2019-04-25T10:42:42.436Z,24.75
2019-04-25T10:43:41.817Z,25.20
2019-04-25T10:44:41.773Z,25.53
2019-04-25T10:45:42.365Z,25.89
2019-04-25T10:46:41.763Z,25.69
2019-04-25T10:47:41.605Z,26.11
2019-04-25T10:48:41.954Z,26.20
2019-04-25T10:49:41.336Z,26.09
2019-04-25T10:50:41.780Z,24.94
2019-04-25T10:51:42.782Z,24.75
2019-04-25T10:52:41.624Z,25.69
2019-04-25T10:53:41.869Z,25.74
2019-04-25T10:54:41.676Z,25.41
2019-04-25T10:55:41.746Z,24.77
2019-04-25T10:56:41.814Z,24.41
2019-04-25T10:57:42.086Z,23.78
2019-04-25T10:58:41.953Z,23.19
2019-04-25T10:59:54.300Z,22.78
2019-04-25T11:00:42.265Z,22.64
2019-04-25T11:01:43.107Z,22.45
2019-04-25T11:02:43.208Z,22.42
2019-04-25T11:03:44.224Z,22.15
2019-04-25T11:04:44.553Z,22.24
2019-04-25T11:05:42.809Z,22.27
2019-04-25T11:06:45.404Z,22.17
2019-04-25T11:07:42.576Z,22.33
2019-04-25T11:08:42.634Z,22.31
2019-04-25T11:09:44.952Z,22.30
2019-04-25T11:10:44.239Z,22.30
2019-04-25T11:11:43.140Z,22.42
2019-04-25T11:12:44.324Z,22.63
2019-04-25T11:13:44.305Z,22.59
2019-04-25T11:14:43.034Z,22.45
2019-04-25T11:15:44.773Z,22.48
2019-04-25T11:16:45.569Z,22.44
2019-04-25T11:17:45.783Z,22.51
2019-04-25T11:18:45.008Z,22.44
2019-04-25T11:19:44.525Z,22.41
2019-04-25T11:20:44.679Z,22.38
2019-04-25T11:21:45.191Z,22.33
2019-04-25T11:22:44.841Z,22.48
2019-04-25T11:23:44.995Z,22.72
2019-04-25T11:24:43.815Z,22.63
2019-04-25T11:25:45.271Z,22.61
2019-04-25T11:26:47.195Z,22.64
2019-04-25T11:27:46.685Z,22.61
2019-04-25T11:28:45.351Z,22.63
2019-04-25T11:29:45.058Z,22.81
2019-04-25T11:30:45.872Z,22.89
2019-04-25T11:31:45.775Z,23.12
2019-04-25T11:32:45.194Z,23.16
2019-04-25T11:33:44.278Z,23.06
2019-04-25T11:34:46.125Z,23.25
2019-04-25T11:35:47.468Z,23.37
2019-04-25T11:36:45.279Z,23.41
2019-04-25T11:37:44.540Z,23.49
2019-04-25T11:38:45.312Z,23.34
2019-04-25T11:39:45.732Z,22.79
2019-04-25T11:40:48.801Z,22.30
2019-04-25T11:41:46.114Z,22.29
2019-04-25T11:42:45.986Z,22.35
2019-04-25T11:43:46.313Z,22.29
2019-04-25T11:44:45.637Z,22.46
2019-04-25T11:45:46.030Z,22.29
2019-04-25T11:46:45.775Z,22.24
2019-04-25T11:47:46.232Z,22.19
2019-04-25T11:48:46.302Z,22.19
2019-04-25T11:49:46.543Z,22.26
2019-04-25T11:50:49.657Z,22.45
2019-04-25T11:51:46.090Z,22.60
2019-04-25T11:52:46.805Z,22.67
2019-04-25T11:53:47.006Z,22.61
2019-04-25T11:54:46.752Z,22.38
2019-04-25T11:55:47.800Z,22.39
2019-04-25T11:56:47.089Z,22.51
2019-04-25T11:57:49.226Z,22.66
2019-04-25T11:58:47.692Z,22.86
2019-04-25T11:59:48.236Z,22.81
2019-04-25T12:00:47.117Z,22.70
2019-04-25T12:01:47.553Z,22.96
2019-04-25T12:02:46.168Z,23.23
2019-04-25T12:03:47.929Z,23.31
2019-04-25T12:04:47.513Z,23.31
2019-04-25T12:05:48.171Z,23.35
2019-04-25T12:06:47.557Z,23.49
2019-04-25T12:07:46.621Z,23.59
2019-04-25T12:08:47.687Z,23.57
2019-04-25T12:09:47.101Z,23.68
2019-04-25T12:10:47.078Z,23.07
2019-04-25T12:11:47.218Z,22.79
2019-04-25T12:12:47.361Z,23.11
2019-04-25T12:13:48.052Z,23.01
2019-04-25T12:14:47.618Z,23.16
2019-04-25T12:15:47.172Z,23.44
2019-04-25T12:16:49.085Z,23.75
2019-04-25T12:17:47.433Z,23.64
2019-04-25T12:18:49.333Z,23.79
2019-04-25T12:19:47.272Z,23.23
2019-04-25T12:20:47.521Z,23.03
2019-04-25T12:21:48.179Z,22.56
2019-04-25T12:22:48.274Z,22.31
2019-04-25T12:23:48.708Z,22.21
2019-04-25T12:24:47.930Z,22.23
2019-04-25T12:25:47.663Z,22.23
2019-04-25T12:26:48.681Z,22.19
2019-04-25T12:27:49.798Z,22.15
2019-04-25T12:28:47.857Z,22.11
2019-04-25T12:29:47.923Z,22.12
2019-04-25T12:30:47.987Z,21.91
2019-04-25T12:31:48.053Z,21.93
2019-04-25T12:32:48.119Z,22.19
2019-04-25T12:33:49.079Z,22.29
2019-04-25T12:34:48.246Z,22.17
2019-04-25T12:35:48.310Z,22.21
2019-04-25T12:36:48.438Z,22.17
2019-04-25T12:37:48.438Z,22.19
2019-04-25T12:38:48.514Z,22.12
2019-04-25T12:39:48.569Z,22.33
2019-04-25T12:40:48.630Z,22.23
2019-04-25T12:41:49.337Z,22.14
2019-04-25T12:42:49.739Z,22.27
2019-04-25T12:43:48.822Z,22.46
2019-04-25T12:44:48.895Z,22.46
2019-04-25T12:45:49.279Z,22.54
2019-04-25T12:46:49.014Z,22.67
2019-04-25T12:47:49.081Z,22.29
2019-04-25T12:48:49.540Z,22.45
2019-04-25T12:49:49.206Z,22.35
2019-04-25T12:50:50.038Z,22.45
2019-04-25T12:51:49.801Z,22.30
2019-04-25T12:52:50.324Z,22.48
2019-04-25T12:54:47.578Z,22.75
2019-04-25T12:55:47.475Z,23.03
2019-04-25T12:56:47.498Z,23.06
2019-04-25T12:57:48.154Z,23.25
2019-04-25T12:58:47.981Z,23.26
2019-04-25T12:59:47.350Z,23.42
2019-04-25T13:01:29.781Z,23.26
2019-04-25T13:02:29.845Z,23.49
2019-04-25T13:03:29.913Z,23.31
2019-04-25T13:04:29.978Z,23.38
2019-04-25T13:05:30.039Z,23.50
2019-04-25T13:06:30.104Z,23.11
2019-04-25T13:07:30.170Z,23.00